Time;durP1;ratioP1;P1;durP2;ratioP2;P2;SDS_P1;SDS_P2;PMS_P1;PMS_P2;Temp;Humidity;BMP_temperature;BMP_pressure;BME280_temperature;BME280_humidity;BME280_pressure;Samples;Min_cycle;Max_cycle;Signal;HPM_P1;HPM_P2
2022/05/11 00:00:30;;;;;;;2.78;1.30;;;;;;;12.15;70.22;101230.38;2079053;28;45385;-67
2022/05/11 00:01:34;;;;;;;3.50;1.33;;;;;;;12.15;69.94;101229.47;2080148;28;41991;-67
2022/05/11 00:02:37;;;;;;;3.70;1.10;;;;;;;12.13;70.16;101223.25;2079772;28;34268;-67
2022/05/11 00:03:40;;;;;;;3.20;1.10;;;;;;;12.13;70.37;101232.22;2080164;28;45748;-67
2022/05/11 00:04:42;;;;;;;2.63;0.95;;;;;;;12.14;70.03;101239.34;2080522;28;39499;-67
2022/05/11 00:05:44;;;;;;;2.80;1.40;;;;;;;12.15;70.55;101241.13;2079975;28;39258;-67
2022/05/11 00:06:46;;;;;;;4.07;1.48;;;;;;;12.19;71.01;101247.28;2080271;28;43037;-66
2022/05/11 00:07:48;;;;;;;4.25;1.45;;;;;;;12.18;70.32;101241.00;2080976;28;20049;-67
2022/05/11 00:08:50;;;;;;;2.30;1.13;;;;;;;12.18;70.84;101241.00;2080040;28;45925;-66
2022/05/11 00:09:52;;;;;;;5.10;1.50;;;;;;;12.18;70.35;101245.50;2080578;28;44990;-66
2022/05/11 00:10:54;;;;;;;4.80;1.38;;;;;;;12.18;70.53;101240.13;2080949;28;27325;-67
2022/05/11 00:11:55;;;;;;;4.72;1.13;;;;;;;12.16;71.03;101236.63;2080614;28;44115;-68
2022/05/11 00:12:59;;;;;;;4.28;1.52;;;;;;;12.15;70.96;101238.44;2080354;28;44795;-67
2022/05/11 00:14:03;;;;;;;3.65;1.40;;;;;;;12.14;70.83;101239.34;2080842;28;24983;-66
2022/05/11 00:15:06;;;;;;;3.03;1.38;;;;;;;12.14;70.60;101244.69;2080500;28;43930;-66
2022/05/11 00:16:10;;;;;;;4.55;1.45;;;;;;;12.14;71.89;101244.69;2079499;28;45631;-66
2022/05/11 00:17:12;;;;;;;2.33;1.27;;;;;;;12.13;71.16;101239.38;2080198;28;46025;-67
2022/05/11 00:18:14;;;;;;;2.53;1.42;;;;;;;12.15;70.92;101235.75;2079903;28;44331;-67
2022/05/11 00:19:19;;;;;;;3.25;1.10;;;;;;;12.16;71.62;101234.81;2079687;28;45526;-67
2022/05/11 00:20:22;;;;;;;3.38;1.48;;;;;;;12.17;71.27;101223.16;2080020;28;44656;-67
2022/05/11 00:21:24;;;;;;;3.67;1.60;;;;;;;12.17;70.85;101231.22;2079328;28;45616;-67
2022/05/11 00:22:26;;;;;;;3.58;1.30;;;;;;;12.17;70.86;101231.22;2080144;28;44451;-66
2022/05/11 00:23:29;;;;;;;4.95;1.48;;;;;;;12.19;71.19;101233.88;2080164;28;45470;-67
2022/05/11 00:24:32;;;;;;;4.13;1.40;;;;;;;12.18;70.48;101232.09;2080150;28;46440;-66
2022/05/11 00:25:34;;;;;;;4.65;1.65;;;;;;;12.18;70.93;101230.28;2080676;28;43917;-66
2022/05/11 00:26:35;;;;;;;3.05;1.35;;;;;;;12.21;71.32;101230.22;2080155;28;45773;-67
2022/05/11 00:27:37;;;;;;;2.17;1.40;;;;;;;12.23;71.61;101227.50;2080111;28;44687;-67
2022/05/11 00:28:39;;;;;;;3.80;1.67;;;;;;;12.27;71.26;101239.03;2080383;28;45354;-66
2022/05/11 00:29:41;;;;;;;4.50;1.85;;;;;;;12.26;71.43;101232.78;2079600;28;44726;-66
2022/05/11 00:30:43;;;;;;;4.82;1.73;;;;;;;12.25;70.89;101228.31;2080092;28;44295;-67
2022/05/11 00:31:44;;;;;;;3.25;1.73;;;;;;;12.26;71.03;101227.44;2079282;28;45696;-67
2022/05/11 00:32:53;;;;;;;5.38;2.03;;;;;;;12.25;70.90;101225.66;2081008;28;20992;-67
2022/05/11 00:33:55;;;;;;;3.83;1.60;;;;;;;12.26;70.77;101227.44;2079388;28;43927;-67
2022/05/11 00:34:56;;;;;;;3.70;1.63;;;;;;;12.25;71.22;101219.41;2079727;28;44950;-67
2022/05/11 00:35:58;;;;;;;6.10;1.77;;;;;;;12.27;70.85;101217.56;2078591;28;42775;-67
2022/05/11 00:37:00;;;;;;;3.40;1.77;;;;;;;12.26;71.17;101219.38;2080197;28;37219;-67
2022/05/11 00:38:03;;;;;;;3.70;1.70;;;;;;;12.28;71.02;101219.34;2080347;28;44808;-67
2022/05/11 00:39:05;;;;;;;4.35;2.17;;;;;;;12.27;71.25;101217.56;2079045;28;44637;-67
2022/05/11 00:40:07;;;;;;;3.70;1.75;;;;;;;12.29;71.28;101215.72;2079766;28;45962;-67
2022/05/11 00:41:12;;;;;;;2.78;1.75;;;;;;;12.27;71.10;101209.50;2080970;28;20815;-67
2022/05/11 00:42:14;;;;;;;3.67;1.90;;;;;;;12.28;71.07;101200.53;2080306;28;45668;-67
2022/05/11 00:43:28;;;;;;;5.15;1.98;;;;;;;12.28;71.17;101205.91;2079789;28;45466;-67
2022/05/11 00:44:29;;;;;;;4.53;2.22;;;;;;;12.27;71.32;101207.69;2080278;28;42321;-67
2022/05/11 00:45:31;;;;;;;3.80;1.77;;;;;;;12.27;71.04;101204.13;2079723;28;45620;-67
2022/05/11 00:46:45;;;;;;;7.25;1.80;;;;;;;12.26;71.03;101207.72;2080084;28;46240;-67
2022/05/11 00:47:56;;;;;;;3.22;2.20;;;;;;;12.28;71.39;101204.09;2079439;28;45763;-67
2022/05/11 00:50:32;;;;;;;3.75;2.05;;;;;;;12.30;71.73;101201.38;2078900;28;44318;-67
2022/05/11 00:51:41;;;;;;;2.88;1.70;;;;;;;12.29;71.14;101189.75;2079832;28;45624;-67
2022/05/11 00:52:52;;;;;;;5.15;2.22;;;;;;;12.29;71.69;101184.41;2080992;28;20078;-67
2022/05/11 00:53:54;;;;;;;4.00;1.95;;;;;;;12.31;71.36;101189.69;2080123;28;24858;-67
2022/05/11 00:55:13;;;;;;;6.15;2.45;;;;;;;12.32;71.53;101186.09;2079775;28;46317;-67
2022/05/11 00:56:15;;;;;;;5.05;2.28;;;;;;;12.32;71.29;101188.78;2080711;28;20489;-67
2022/05/11 00:57:28;;;;;;;5.70;2.20;;;;;;;12.34;71.92;101195.00;2080257;28;45294;-67
2022/05/11 00:58:41;;;;;;;6.78;2.33;;;;;;;12.37;71.81;101192.25;2078815;28;45613;-67
2022/05/11 00:59:48;;;;;;;4.97;2.53;;;;;;;12.40;71.78;101192.16;2076518;28;43767;-67
2022/05/11 01:00:50;;;;;;;4.63;2.30;;;;;;;12.39;71.35;101182.34;2072966;28;47136;-67
2022/05/11 01:01:53;;;;;;;4.82;2.40;;;;;;;12.38;71.71;101177.88;2080575;28;41883;-67
2022/05/11 01:03:03;;;;;;;5.00;2.40;;;;;;;12.42;71.76;101171.53;2079643;28;45261;-67
2022/05/11 01:04:13;;;;;;;;;;;;;;;12.43;72.65;101159.84;2077955;28;46710;-67
2022/05/11 01:05:14;;;;;;;7.72;2.05;;;;;;;12.45;71.95;101160.69;2073211;28;44155;-66
2022/05/11 01:06:18;;;;;;;4.18;2.72;;;;;;;12.44;71.45;101158.94;2079844;28;44976;-67
2022/05/11 01:07:20;;;;;;;3.75;2.33;;;;;;;12.43;71.70;101162.53;2079520;28;45834;-67
2022/05/11 01:08:23;;;;;;;3.92;2.47;;;;;;;12.44;72.09;101172.34;2079000;28;46412;-67
2022/05/11 01:09:25;;;;;;;4.38;2.42;;;;;;;12.45;72.45;101167.84;2079110;28;43998;-67
2022/05/11 01:10:32;;;;;;;4.43;2.50;;;;;;;12.44;72.27;101169.66;2079052;28;43481;-67
2022/05/11 01:11:50;;;;;;;7.63;2.78;;;;;;;12.46;72.79;101164.25;2079652;28;46195;-67
2022/05/11 01:12:59;;;;;;;4.93;2.55;;;;;;;12.46;72.41;101159.75;2077989;28;44552;-67
2022/05/11 01:14:03;;;;;;;6.60;3.05;;;;;;;12.47;73.40;101156.16;2079567;28;45324;-67
2022/05/11 01:15:07;;;;;;;5.82;2.80;;;;;;;12.46;72.29;101146.34;2079117;28;46103;-67
2022/05/11 01:16:09;;;;;;;5.53;2.65;;;;;;;12.45;72.32;101147.25;2078580;28;43494;-67
2022/05/11 01:17:11;;;;;;;5.45;2.55;;;;;;;12.45;72.54;101136.50;2071121;28;43674;-67
2022/05/11 01:18:14;;;;;;;6.15;2.75;;;;;;;12.45;72.15;101146.38;2079467;28;44316;-67
2022/05/11 01:19:32;;;;;;;4.45;2.50;;;;;;;12.45;72.82;101147.25;2079396;28;45306;-67
2022/05/11 01:20:37;;;;;;;3.55;2.30;;;;;;;12.44;72.81;101140.13;2079270;28;44719;-67
2022/05/11 01:21:56;;;;;;;5.32;2.45;;;;;;;12.45;72.65;101135.63;2077645;28;43334;-67
2022/05/11 01:23:43;;;;;;;9.18;2.97;;;;;;;12.44;73.13;101133.88;2073924;28;44469;-68
2022/05/11 01:24:48;;;;;;;3.65;2.50;;;;;;;12.40;72.31;101135.78;2060161;28;45973;-66
2022/05/11 01:25:50;;;;;;;5.50;2.15;;;;;;;12.40;72.65;101133.09;2078123;28;35133;-67
2022/05/11 01:26:51;;;;;;;4.97;2.63;;;;;;;12.38;72.73;101129.53;2079926;28;45268;-67
2022/05/11 01:28:11;;;;;;;4.53;2.55;;;;;;;12.37;72.81;101128.66;2080587;28;20907;-67
2022/05/11 01:29:15;;;;;;;3.00;2.35;;;;;;;12.36;73.21;101131.38;2080107;28;32910;-67
2022/05/11 01:30:25;;;;;;;3.72;2.58;;;;;;;12.34;73.32;101134.13;2079713;28;44021;-67
2022/05/11 01:31:27;;;;;;;3.22;2.17;;;;;;;12.32;72.87;101132.41;2080031;28;43066;-67
2022/05/11 01:32:30;;;;;;;3.15;2.40;;;;;;;12.31;73.64;101139.59;2079874;28;45793;-67
2022/05/11 01:33:35;;;;;;;6.10;2.30;;;;;;;12.30;73.47;101134.25;2080024;28;41121;-67
2022/05/11 01:34:37;;;;;;;5.25;2.28;;;;;;;12.28;73.71;101133.41;2080216;28;42949;-67
2022/05/11 01:35:50;;;;;;;4.38;2.45;;;;;;;12.26;73.57;101132.56;2078790;28;45547;-67
2022/05/11 01:36:55;;;;;;;6.78;3.17;;;;;;;12.23;74.07;101134.41;2079817;28;43856;-67
2022/05/11 01:38:24;;;;;;;4.80;2.75;;;;;;;12.25;74.30;101123.63;2079158;28;45728;-67
2022/05/11 01:39:26;;;;;;;3.78;2.50;;;;;;;12.25;73.98;101117.38;2078810;28;45981;-67
2022/05/11 01:40:27;;;;;;;3.83;2.83;;;;;;;12.26;74.86;101124.50;2079278;28;45408;-67
2022/05/11 01:41:41;;;;;;;4.82;3.40;;;;;;;12.26;75.25;101116.44;2070739;28;42490;-67
2022/05/11 01:42:43;;;;;;;6.28;3.08;;;;;;;12.25;74.92;101122.75;2072682;28;43103;-67
2022/05/11 01:43:45;;;;;;;4.85;3.15;;;;;;;12.27;74.95;101120.91;2079814;28;45488;-67
2022/05/11 01:44:49;;;;;;;3.05;2.75;;;;;;;12.26;74.69;101111.97;2080555;28;20038;-67
2022/05/11 01:45:54;;;;;;;6.07;3.13;;;;;;;12.27;74.71;101118.22;2079074;28;37877;-67
2022/05/11 01:46:59;;;;;;;5.07;2.88;;;;;;;12.23;74.65;101120.97;2079038;28;46756;-67
2022/05/11 01:48:01;;;;;;;5.82;2.95;;;;;;;12.26;74.52;101121.81;2078176;28;42100;-67
2022/05/11 01:49:05;;;;;;;4.05;3.05;;;;;;;12.24;74.61;101113.84;2071899;28;43909;-68
2022/05/11 01:50:08;;;;;;;3.58;2.53;;;;;;;12.23;75.02;101112.06;2079878;28;30565;-66
2022/05/11 01:51:13;;;;;;;4.18;3.03;;;;;;;12.24;74.52;101111.16;2080438;28;20140;-66
2022/05/11 01:52:14;;;;;;;5.25;2.85;;;;;;;12.24;74.88;101111.16;2079638;28;43942;-67
2022/05/11 01:53:17;;;;;;;6.20;2.88;;;;;;;12.23;74.76;101110.25;2078851;28;45979;-67
2022/05/11 01:54:19;;;;;;;3.28;2.92;;;;;;;12.23;74.66;101112.06;2078949;28;45335;-67
2022/05/11 01:55:23;;;;;;;7.35;2.88;;;;;;;12.22;74.72;101107.59;2079637;28;46870;-67
2022/05/11 01:56:26;;;;;;;6.88;3.35;;;;;;;12.21;74.96;101114.78;2079516;28;43463;-66
2022/05/11 01:57:27;;;;;;;4.43;2.67;;;;;;;12.20;74.78;101118.41;2079911;28;45309;-67
2022/05/11 01:58:30;;;;;;;4.45;2.85;;;;;;;12.19;74.88;101115.75;2079242;28;38532;-67
2022/05/11 01:59:31;;;;;;;5.72;3.38;;;;;;;12.18;74.59;101114.84;2079731;28;40734;-67
2022/05/11 02:00:39;;;;;;;4.45;3.30;;;;;;;12.16;74.87;101118.50;2079728;28;43901;-67
2022/05/11 02:01:41;;;;;;;4.32;3.10;;;;;;;12.15;75.47;101112.28;2079486;28;43281;-67
2022/05/11 02:02:45;;;;;;;6.03;3.17;;;;;;;12.13;74.75;101114.13;2079590;28;43316;-67
2022/05/11 02:03:47;;;;;;;4.95;2.53;;;;;;;12.09;74.91;101115.09;2080163;28;42917;-67
2022/05/11 02:08:50;;;;;;;5.65;2.78;;;;;;;12.04;75.56;101114.34;2079369;28;45731;-68
2022/05/11 02:09:52;;;;;;;4.97;3.20;;;;;;;12.08;75.53;101116.03;2079862;28;45637;-68
2022/05/11 02:10:54;;;;;;;6.05;3.40;;;;;;;12.07;75.72;101108.91;2079296;28;45013;-67
2022/05/11 02:11:56;;;;;;;4.40;3.15;;;;;;;12.09;76.03;101109.72;2079825;28;31164;-67
2022/05/11 02:12:58;;;;;;;6.35;3.47;;;;;;;12.08;75.81;101113.34;2079567;28;43105;-67
2022/05/11 02:14:00;;;;;;;5.13;3.28;;;;;;;12.09;75.97;101107.03;2078916;28;43127;-67
2022/05/11 02:15:04;;;;;;;5.82;3.30;;;;;;;12.09;76.17;101107.03;2078632;28;44256;-67
2022/05/11 02:16:07;;;;;;;6.07;3.42;;;;;;;12.11;75.99;101099.84;2078938;28;43192;-67
2022/05/11 02:17:09;;;;;;;6.10;3.60;;;;;;;12.11;76.38;101098.97;2078957;28;45706;-67
2022/05/11 02:18:12;;;;;;;5.65;3.40;;;;;;;12.13;75.59;101099.78;2080076;28;21002;-67
2022/05/11 02:19:14;;;;;;;4.80;3.75;;;;;;;12.13;75.24;101103.38;2079519;28;45136;-67
2022/05/11 02:20:19;;;;;;;7.28;3.72;;;;;;;12.12;75.38;101108.78;2079781;28;44701;-67
2022/05/11 02:21:23;;;;;;;7.22;3.50;;;;;;;12.13;75.82;101106.06;2077896;28;44313;-68
2022/05/11 02:22:24;;;;;;;5.75;3.70;;;;;;;12.13;75.83;101105.16;2078899;28;44129;-67
2022/05/11 02:23:35;;;;;;;5.28;3.28;;;;;;;12.11;75.24;101094.47;2079436;28;44066;-67
2022/05/11 02:24:37;;;;;;;5.45;3.10;;;;;;;12.11;75.61;101086.41;2079331;28;44017;-66
2022/05/11 02:25:46;;;;;;;6.50;3.63;;;;;;;12.14;75.34;101082.78;2079504;28;46356;-66
2022/05/11 02:26:48;;;;;;;5.30;3.28;;;;;;;12.15;75.40;101077.38;2079033;28;41942;-67
2022/05/11 02:27:52;;;;;;;7.85;3.28;;;;;;;12.16;75.01;101076.44;2078651;28;45644;-67
2022/05/11 02:28:55;;;;;;;6.72;3.70;;;;;;;12.18;75.11;101085.31;2079383;28;46094;-67
2022/05/11 02:29:57;;;;;;;3.95;3.03;;;;;;;12.19;74.86;101080.84;2078362;28;44170;-67
2022/05/11 02:31:00;;;;;;;5.70;3.70;;;;;;;12.17;74.89;101088.94;2079629;28;44801;-67
2022/05/11 02:32:04;;;;;;;5.80;3.40;;;;;;;12.19;74.83;101081.72;2080122;28;20038;-67
2022/05/11 02:33:09;;;;;;;4.72;3.65;;;;;;;12.20;74.77;101071.88;2079473;28;45854;-67
2022/05/11 02:35:12;;;;;;;7.78;3.05;;;;;;;12.18;74.72;101069.22;2078810;28;44680;-67
2022/05/11 02:35:33;;;;;;;6.28;3.53;;;;;;;12.17;75.03;101083.56;2080790;28;33124;-66
2022/05/11 02:36:35;;;;;;;4.88;3.80;;;;;;;12.17;74.62;101078.22;2079152;28;45392;-67
2022/05/11 02:37:37;;;;;;;5.70;2.92;;;;;;;12.16;75.04;101088.97;2079631;28;45655;-67
2022/05/11 02:38:43;;;;;;;3.90;2.58;;;;;;;12.16;74.75;101081.81;2079407;28;42011;-67
2022/05/11 02:39:48;;;;;;;5.80;3.65;;;;;;;12.17;75.10;101085.41;2079541;28;43978;-67
2022/05/11 02:40:51;;;;;;;4.68;3.47;;;;;;;12.17;74.64;101078.22;2078853;28;37816;-67
2022/05/11 02:41:54;;;;;;;3.67;3.05;;;;;;;12.18;75.40;101074.59;2079665;28;45325;-66
2022/05/11 02:42:56;;;;;;;4.07;3.05;;;;;;;12.19;75.08;101071.00;2079125;28;45869;-67
2022/05/11 02:43:58;;;;;;;5.45;3.05;;;;;;;12.19;75.04;101079.03;2079007;28;45122;-67
2022/05/11 02:45:00;;;;;;;5.85;3.63;;;;;;;12.19;74.85;101079.03;2078568;28;44873;-67
2022/05/11 02:46:02;;;;;;;7.60;3.72;;;;;;;12.19;74.71;101081.72;2079068;28;43284;-67
2022/05/11 02:47:06;;;;;;;6.35;2.80;;;;;;;12.19;74.73;101070.13;2079121;28;45431;-67
2022/05/11 02:48:15;;;;;;;5.43;2.63;;;;;;;12.20;75.52;101071.88;2079654;28;44665;-67
2022/05/11 02:49:18;;;;;;;4.85;3.00;;;;;;;12.20;74.53;101078.13;2078865;28;45201;-67
2022/05/11 02:50:35;;;;;;;4.93;3.50;;;;;;;12.22;75.70;101070.00;2079026;28;46900;-67
2022/05/11 02:51:39;;;;;;;9.68;2.95;;;;;;;12.21;74.46;101071.81;2078419;28;43934;-66
2022/05/11 02:52:41;;;;;;;4.22;3.28;;;;;;;12.21;74.83;101066.47;2078254;28;44282;-67
2022/05/11 02:53:42;;;;;;;7.97;3.38;;;;;;;12.22;75.46;101070.00;2079404;28;44631;-67
2022/05/11 02:54:46;;;;;;;5.05;3.30;;;;;;;12.22;74.91;101070.00;2079726;28;28357;-67
2022/05/11 02:55:53;;;;;;;6.22;3.83;;;;;;;12.21;75.24;101062.91;2079089;28;47799;-67
2022/05/11 02:56:54;;;;;;;5.75;3.03;;;;;;;12.19;74.63;101065.63;2080047;28;20041;-66
2022/05/11 02:57:56;;;;;;;4.72;3.38;;;;;;;12.19;74.46;101073.69;2079102;28;46386;-67
2022/05/11 02:58:58;;;;;;;4.95;3.20;;;;;;;12.20;75.21;101067.41;2078941;28;45992;-66
2022/05/11 03:00:00;;;;;;;7.07;3.75;;;;;;;12.21;74.63;101068.28;2079312;28;41006;-67
2022/05/11 03:01:03;;;;;;;4.47;3.25;;;;;;;12.18;74.64;101065.66;2078575;28;44085;-66
2022/05/11 03:02:05;;;;;;;7.40;3.92;;;;;;;12.18;75.20;101066.53;2079136;28;35644;-66
2022/05/11 03:03:07;;;;;;;6.30;3.47;;;;;;;12.16;74.71;101065.69;2078328;28;44408;-66
2022/05/11 03:04:09;;;;;;;4.97;3.20;;;;;;;12.16;75.13;101059.47;2079304;28;44840;-66
2022/05/11 03:05:12;;;;;;;5.57;3.00;;;;;;;12.14;74.71;101059.50;2079613;28;39695;-66
2022/05/11 03:06:14;;;;;;;6.75;3.40;;;;;;;12.15;74.87;101057.69;2079312;28;45578;-66
2022/05/11 03:07:17;;;;;;;4.45;3.13;;;;;;;12.17;74.69;101058.56;2078927;28;45849;-66
2022/05/11 03:08:20;;;;;;;5.57;3.33;;;;;;;12.15;74.83;101052.31;2078623;28;45166;-66
2022/05/11 03:09:22;;;;;;;5.22;2.60;;;;;;;12.14;74.52;101055.94;2078272;28;46400;-66
2022/05/11 03:10:24;;;;;;;4.40;3.35;;;;;;;12.13;74.84;101060.44;2079029;28;42992;-67
2022/05/11 03:11:28;;;;;;;5.93;3.75;;;;;;;12.16;75.61;101056.78;2078516;28;46679;-66
2022/05/11 03:12:37;;;;;;;4.75;2.80;;;;;;;12.16;75.60;101060.31;2079714;28;20053;-66
2022/05/11 03:13:38;;;;;;;3.58;3.13;;;;;;;12.15;75.56;101069.31;2078672;28;44135;-66
2022/05/11 03:14:41;;;;;;;5.10;3.20;;;;;;;12.14;75.32;101064.88;2079181;28;44980;-66
2022/05/11 03:15:43;;;;;;;7.47;3.55;;;;;;;12.16;75.38;101064.81;2078801;28;44978;-66
2022/05/11 03:16:45;;;;;;;4.18;3.28;;;;;;;12.15;75.22;101052.31;2079225;28;45657;-66
2022/05/11 03:17:47;;;;;;;6.78;3.67;;;;;;;12.16;74.97;101052.28;2079337;28;43856;-66
2022/05/11 03:18:49;;;;;;;5.97;3.70;;;;;;;12.15;75.55;101052.31;2079575;28;45031;-66
2022/05/11 03:19:52;;;;;;;6.22;3.22;;;;;;;12.16;75.22;101043.34;2078919;28;45338;-67
2022/05/11 03:20:58;;;;;;;4.55;3.08;;;;;;;12.16;75.54;101049.59;2079105;28;44742;-66
2022/05/11 03:22:00;;;;;;;7.55;3.17;;;;;;;12.15;74.88;101047.84;2078355;28;44324;-67
2022/05/11 03:23:02;;;;;;;6.45;3.58;;;;;;;12.16;75.63;101048.72;2078845;28;44914;-66
2022/05/11 03:24:04;;;;;;;6.45;3.28;;;;;;;12.16;74.98;101038.84;2079126;28;43112;-66
2022/05/11 03:25:08;;;;;;;4.07;3.05;;;;;;;12.15;75.14;101041.56;2079040;28;44289;-66
2022/05/11 03:26:14;;;;;;;5.53;3.17;;;;;;;12.15;74.84;101042.47;2077978;28;46255;-66
2022/05/11 03:27:18;;;;;;;5.90;3.15;;;;;;;12.15;74.90;101041.56;2079134;28;44309;-66
2022/05/11 03:28:20;;;;;;;9.43;4.10;;;;;;;12.16;75.08;101040.66;2070035;28;44800;-67
2022/05/11 03:29:22;;;;;;;11.27;4.00;;;;;;;12.17;74.92;101045.13;2070388;28;43431;-67
2022/05/11 03:30:23;;;;;;;5.85;3.40;;;;;;;12.18;75.42;101038.81;2078707;28;34790;-66
2022/05/11 03:31:27;;;;;;;7.88;4.28;;;;;;;12.20;75.74;101039.66;2079074;28;45512;-66
2022/05/11 03:35:11;;;;;;;7.03;3.85;;;;;;;12.22;75.24;101051.22;2079890;28;20041;-67
2022/05/11 03:36:12;;;;;;;5.65;3.40;;;;;;;12.22;74.76;101048.53;2079070;28;43938;-66
2022/05/11 03:37:17;;;;;;;8.48;3.83;;;;;;;12.21;74.58;101050.34;2078832;28;44518;-66
2022/05/11 03:38:19;;;;;;;6.40;4.22;;;;;;;12.22;74.86;101046.75;2078952;28;45444;-66
2022/05/11 03:39:21;;;;;;;6.25;3.78;;;;;;;12.22;74.75;101043.16;2078382;28;44811;-67
2022/05/11 03:40:24;;;;;;;6.10;4.00;;;;;;;12.19;75.03;101041.47;2078800;28;44536;-67
2022/05/11 03:41:25;;;;;;;5.18;3.75;;;;;;;12.22;75.14;101040.47;2078420;28;45421;-66
2022/05/11 03:42:32;;;;;;;4.80;3.50;;;;;;;12.21;75.10;101038.75;2079008;28;45810;-67
2022/05/11 03:43:34;;;;;;;4.75;3.38;;;;;;;12.23;74.63;101037.75;2078733;28;44517;-67
2022/05/11 03:44:36;;;;;;;6.75;3.53;;;;;;;12.22;74.79;101041.38;2078354;28;45561;-66
2022/05/11 03:45:38;;;;;;;6.05;3.83;;;;;;;12.21;74.51;101034.25;2078852;28;44403;-67
2022/05/11 03:46:40;;;;;;;4.78;3.78;;;;;;;12.23;74.79;101040.44;2078659;28;44164;-67
2022/05/11 03:47:42;;;;;;;7.47;4.38;;;;;;;12.26;74.37;101041.28;2078792;28;45378;-66
2022/05/11 03:48:44;;;;;;;6.80;3.85;;;;;;;12.27;75.18;101035.00;2078954;28;44650;-66
2022/05/11 03:49:45;;;;;;;6.22;3.60;;;;;;;12.29;74.77;101042.09;2079721;28;20937;-67
2022/05/11 03:50:47;;;;;;;8.13;4.15;;;;;;;12.29;75.09;101038.50;2078884;28;45846;-66
2022/05/11 03:51:51;;;;;;;8.57;3.85;;;;;;;12.31;75.13;101040.25;2078698;28;45296;-67
2022/05/11 03:52:55;;;;;;;5.90;4.03;;;;;;;12.31;74.91;101036.66;2079259;28;44856;-67
2022/05/11 03:53:57;;;;;;;7.05;3.90;;;;;;;12.31;74.67;101039.34;2069954;28;42142;-67
2022/05/11 03:54:59;;;;;;;5.43;4.10;;;;;;;12.34;74.66;101033.91;2070238;28;43963;-67
2022/05/11 03:56:00;;;;;;;6.25;4.15;;;;;;;12.35;74.23;101030.31;2078296;28;44684;-67
2022/05/11 03:57:02;;;;;;;4.43;3.50;;;;;;;12.35;74.60;101031.16;2078282;28;44339;-67
2022/05/11 03:58:07;;;;;;;4.97;4.22;;;;;;;12.35;74.01;101028.50;2069947;28;32303;-67
2022/05/11 03:59:08;;;;;;;4.20;3.80;;;;;;;12.34;74.42;101021.34;2078263;28;42364;-66
2022/05/11 04:00:15;;;;;;;7.20;4.22;;;;;;;12.35;74.84;101016.88;2077365;28;44391;-67
2022/05/11 04:01:17;;;;;;;5.38;3.60;;;;;;;12.36;74.63;101022.22;2071225;28;45539;-61
2022/05/11 04:02:19;;;;;;;6.15;3.97;;;;;;;12.37;74.65;101023.06;2078402;28;36758;-67
2022/05/11 04:03:20;;;;;;;7.03;4.20;;;;;;;12.37;74.46;101021.25;2078554;28;45096;-67
2022/05/11 04:04:22;;;;;;;7.30;4.18;;;;;;;12.38;74.88;101027.50;2079051;28;31823;-67
2022/05/11 04:05:24;;;;;;;7.00;3.53;;;;;;;12.38;74.55;101023.03;2079321;28;45482;-67
2022/05/11 04:06:26;;;;;;;6.75;4.18;;;;;;;12.41;74.57;101028.28;2078725;28;46221;-66
2022/05/11 04:07:28;;;;;;;6.82;4.13;;;;;;;12.44;74.51;101030.03;2079328;28;35011;-67
2022/05/11 04:08:30;;;;;;;5.32;4.13;;;;;;;12.43;74.80;101025.56;2079151;28;45308;-67
2022/05/11 04:09:31;;;;;;;6.93;4.43;;;;;;;12.48;74.50;101029.00;2078588;28;44352;-66
2022/05/11 04:10:33;;;;;;;6.10;4.13;;;;;;;12.48;74.37;101018.25;2079643;28;21391;-66
2022/05/11 04:11:36;;;;;;;6.95;3.85;;;;;;;12.48;74.58;101018.25;2078393;28;46244;-67
2022/05/11 04:12:38;;;;;;;6.07;4.22;;;;;;;12.50;74.30;101016.41;2078817;28;38187;-67
2022/05/11 04:13:42;;;;;;;6.85;4.57;;;;;;;12.52;73.88;101022.59;2068949;28;42859;-67
2022/05/11 04:14:44;;;;;;;8.45;4.45;;;;;;;12.52;74.53;101017.25;2070614;28;43496;-67
2022/05/11 04:15:53;;;;;;;5.15;3.85;;;;;;;12.54;75.04;101011.81;2078909;28;43626;-67
2022/05/11 04:16:58;;;;;;;6.13;4.20;;;;;;;12.55;74.92;101014.47;2078474;28;47173;-67
2022/05/11 04:18:00;;;;;;;8.00;4.43;;;;;;;12.57;74.88;101017.97;2078742;28;43463;-67
2022/05/11 04:19:02;;;;;;;8.63;4.30;;;;;;;12.60;74.94;101011.66;2078562;28;45529;-67
2022/05/11 04:20:05;;;;;;;7.75;4.25;;;;;;;12.62;75.12;101008.94;2078465;28;45749;-67
2022/05/11 04:21:07;;;;;;;8.48;4.70;;;;;;;12.65;75.11;101011.50;2079148;28;20034;-67
2022/05/11 04:22:09;;;;;;;5.32;3.95;;;;;;;12.66;75.18;101005.22;2078184;28;44951;-67
2022/05/11 04:23:12;;;;;;;8.23;3.90;;;;;;;12.66;74.49;101014.16;2078599;28;42077;-67
2022/05/11 04:24:14;;;;;;;7.03;4.10;;;;;;;12.68;74.86;101008.72;2078016;28;43096;-68
2022/05/11 04:25:16;;;;;;;6.53;3.88;;;;;;;12.68;74.82;101017.66;2078618;28;43852;-67
2022/05/11 04:26:18;;;;;;;7.07;4.40;;;;;;;12.69;74.37;101016.75;2078170;28;39325;-67
2022/05/11 04:27:19;;;;;;;6.80;3.83;;;;;;;12.70;74.21;101012.25;2078236;28;45167;-67
2022/05/11 04:28:21;;;;;;;5.63;4.13;;;;;;;12.73;75.17;101017.53;2078470;28;44146;-66
2022/05/11 04:29:23;;;;;;;5.80;3.80;;;;;;;12.73;74.73;101013.03;2078895;28;44333;-66
2022/05/11 04:30:31;;;;;;;9.07;4.20;;;;;;;12.73;74.93;101020.22;2078627;28;46608;-67
2022/05/11 04:31:33;;;;;;;7.00;4.15;;;;;;;12.77;75.09;101016.50;2079183;28;25487;-67
2022/05/11 04:32:34;;;;;;;6.93;3.78;;;;;;;12.79;74.54;101022.69;2078389;28;45629;-67
2022/05/11 04:33:36;;;;;;;5.97;3.50;;;;;;;12.79;75.13;101012.84;2078544;28;45882;-66
2022/05/11 04:34:40;;;;;;;6.18;3.47;;;;;;;12.81;75.00;101015.47;2078326;28;34716;-65
2022/05/11 04:35:41;;;;;;;6.50;3.95;;;;;;;12.83;74.49;101005.59;2069787;28;44238;-67
2022/05/11 04:36:43;;;;;;;5.63;4.07;;;;;;;12.83;74.70;100997.53;2070289;28;42450;-67
2022/05/11 04:37:47;;;;;;;6.72;3.83;;;;;;;12.85;74.22;101000.13;2079673;28;45451;-66
2022/05/11 04:38:49;;;;;;;7.30;3.92;;;;;;;12.86;74.84;101005.47;2080541;28;41982;-67
2022/05/11 04:39:50;;;;;;;4.95;4.13;;;;;;;12.88;75.17;101000.03;2079939;28;45680;-66
2022/05/11 04:40:53;;;;;;;8.32;3.63;;;;;;;12.88;74.76;100995.53;2080059;28;45216;-66
2022/05/11 04:41:55;;;;;;;7.07;3.67;;;;;;;12.90;73.97;100998.19;2079761;28;46122;-66
2022/05/11 04:42:57;;;;;;;8.27;4.22;;;;;;;12.91;74.59;100997.28;2079864;28;44297;-67
2022/05/11 04:43:59;;;;;;;5.82;3.80;;;;;;;12.92;74.78;100999.00;2079234;28;43499;-69
2022/05/11 04:45:01;;;;;;;7.13;3.53;;;;;;;12.93;74.51;100993.59;2071433;28;37442;-66
2022/05/11 04:46:02;;;;;;;7.40;3.85;;;;;;;12.95;74.52;100993.53;2071510;28;43842;-67
2022/05/11 04:47:13;;;;;;;5.15;3.88;;;;;;;12.95;73.85;100986.34;2079940;28;43575;-67
2022/05/11 04:48:18;;;;;;;5.47;3.90;;;;;;;12.96;74.76;100987.25;2080012;28;43321;-66
2022/05/11 04:49:20;;;;;;;5.97;3.95;;;;;;;12.99;74.69;100992.50;2080481;28;26082;-67
2022/05/11 04:50:22;;;;;;;6.53;3.70;;;;;;;12.99;74.25;100992.50;2080313;28;46954;-67
2022/05/11 04:51:23;;;;;;;9.02;4.10;;;;;;;13.00;74.65;100991.59;2079411;28;45930;-67
2022/05/11 04:52:27;;;;;;;7.07;3.95;;;;;;;13.00;74.03;100994.28;2079920;28;45580;-67
2022/05/11 04:53:29;;;;;;;6.28;4.53;;;;;;;13.01;74.67;101001.44;2079810;28;42782;-67
2022/05/11 04:54:36;;;;;;;7.00;4.15;;;;;;;13.03;74.68;100993.28;2079009;28;46604;-67
2022/05/11 04:55:39;;;;;;;5.60;4.22;;;;;;;13.02;74.79;100997.78;2077899;28;34518;-66
2022/05/11 04:56:41;;;;;;;5.53;3.85;;;;;;;13.05;73.86;100995.03;2072242;28;44308;-67
2022/05/11 04:57:42;;;;;;;7.60;3.80;;;;;;;13.07;73.80;100989.59;2079656;28;44463;-67
2022/05/11 04:58:44;;;;;;;6.55;3.95;;;;;;;13.08;74.65;100994.03;2080102;28;43953;-67
2022/05/11 04:59:46;;;;;;;5.35;3.75;;;;;;;13.09;74.09;101003.88;2080037;28;45384;-67
2022/05/11 05:00:50;;;;;;;6.13;4.57;;;;;;;13.08;74.78;100999.41;2080355;28;38280;-67
2022/05/11 05:01:52;;;;;;;6.32;3.95;;;;;;;13.11;73.99;101002.00;2079595;28;45817;-67
2022/05/11 05:02:54;;;;;;;8.23;4.20;;;;;;;13.13;74.30;101005.50;2080692;28;20045;-67
2022/05/11 05:03:56;;;;;;;8.52;3.63;;;;;;;13.14;74.54;100996.53;2079316;28;43812;-66
2022/05/11 05:05:00;;;;;;;6.50;4.07;;;;;;;13.15;74.12;101006.34;2079058;28;48117;-66